Time;durP1;ratioP1;P1;durP2;ratioP2;P2;SDS_P1;SDS_P2;PMS_P1;PMS_P2;Temp;Humidity;BMP_temperature;BMP_pressure;BME280_temperature;BME280_humidity;BME280_pressure;Samples;Min_cycle;Max_cycle;Signal;HPM_P1;HPM_P2
2022/09/24 00:00:10;;;;;;;;;;;;;;;;;;5070638;28;19928;-88
2022/09/24 00:02:39;;;;;;;;;;;;;;;;;;5071395;28;20385;-88
2022/09/24 00:05:05;;;;;;;;;;;;;;;;;;5067139;28;20050;-89
2022/09/24 00:07:31;;;;;;;;;;;;;;;;;;5068026;28;19999;-88
2022/09/24 00:09:57;;;;;;;;;;;;;;;;;;5050290;27;24041;-88
2022/09/24 00:12:24;;;;;;;;;;;;;;;;;;5066466;28;20330;-89
2022/09/24 00:14:50;;;;;;;;;;;;;;;;;;5065145;28;19964;-89
2022/09/24 00:17:16;;;;;;;;;;;;;;;;;;5067461;28;19935;-88
2022/09/24 00:19:43;;;;;;;;;;;;;;;;;;5063617;28;20006;-89
2022/09/24 00:22:09;;;;;;;;;;;;;;;;;;5068914;28;19928;-88
2022/09/24 00:27:19;;;;;;;;;;;;;;;;;;5067278;28;19927;-88
2022/09/24 00:29:45;;;;;;;;;;;;;;;;;;5042969;28;20419;-88
2022/09/24 00:32:12;;;;;;;;;;;;;;;;;;5066341;28;19925;-88
2022/09/24 00:34:38;;;;;;;;;;;;;;;;;;5057269;28;20357;-89
2022/09/24 00:37:04;;;;;;;;;;;;;;;;;;5062604;28;19919;-88
2022/09/24 00:39:30;;;;;;;;;;;;;;;;;;5066380;28;19927;-88
2022/09/24 00:41:56;;;;;;;;;;;;;;;;;;5057706;28;20964;-88
2022/09/24 00:44:22;;;;;;;;;;;;;;;;;;5067920;28;20331;-89
2022/09/24 00:46:48;;;;;;;;;;;;;;;;;;5047828;28;19924;-89
2022/09/24 00:49:14;;;;;;;;;;;;;;;;;;5066067;28;20386;-89
2022/09/24 00:51:39;;;;;;;;;;;;;;;;;;5060500;27;19928;-88
2022/09/24 00:54:05;;;;;;;;;;;;;;;;;;5065952;28;19934;-89
2022/09/24 00:56:31;;;;;;;;;;;;;;;;;;5068810;28;20666;-88
2022/09/24 00:58:57;;;;;;;;;;;;;;;;;;5048064;28;21832;-89
2022/09/24 01:01:23;;;;;;;;;;;;;;;;;;5062718;28;20232;-89
2022/09/24 01:03:49;;;;;;;;;;;;;;;;;;5064848;27;20015;-89
2022/09/24 01:06:15;;;;;;;;;;;;;;;;;;5068804;28;19965;-89
2022/09/24 01:08:41;;;;;;;;;;;;;;;;;;5068390;27;19965;-89
2022/09/24 01:11:07;;;;;;;;;;;;;;;;;;5057035;27;20359;-89
2022/09/24 01:13:33;;;;;;;;;;;;;;;;;;5057264;27;21380;-89
2022/09/24 01:15:59;;;;;;;;;;;;;;;;;;5043146;28;19924;-89
2022/09/24 01:18:27;;;;;;;;;;;;;;;;;;5067002;28;19988;-89
2022/09/24 01:20:52;;;;;;;;;;;;;;;;;;5064802;27;19930;-89
2022/09/24 01:23:19;;;;;;;;;;;;;;;;;;5071044;27;19924;-90
2022/09/24 01:25:45;;;;;;;;;;;;;;;;;;5051422;27;19927;-89
2022/09/24 01:28:11;;;;;;;;;;;;;;;;;;5073464;28;20004;-89
2022/09/24 01:30:37;;;;;;;;;;;;;;;;;;5067780;27;19924;-90
2022/09/24 01:33:03;;;;;;;;;;;;;;;;;;5074566;27;19981;-89
2022/09/24 01:35:29;;;;;;;;;;;;;;;;;;5071604;27;19919;-89
2022/09/24 01:37:55;;;;;;;;;;;;;;;;;;5069217;27;19927;-89
2022/09/24 01:40:21;;;;;;;;;;;;;;;;;;5054412;28;19952;-89
2022/09/24 01:42:48;;;;;;;;;;;;;;;;;;5058734;27;19998;-90
2022/09/24 01:45:13;;;;;;;;;;;;;;;;;;5063532;27;19928;-89
2022/09/24 01:47:39;;;;;;;;;;;;;;;;;;5064977;27;19934;-89
2022/09/24 01:50:05;;;;;;;;;;;;;;;;;;5066219;27;19927;-89
2022/09/24 01:52:31;;;;;;;;;;;;;;;;;;5058165;28;19920;-89
2022/09/24 01:54:57;;;;;;;;;;;;;;;;;;5062689;27;21839;-90
2022/09/24 01:57:23;;;;;;;;;;;;;;;;;;5065295;27;19930;-89
2022/09/24 01:59:49;;;;;;;;;;;;;;;;;;5060762;27;19928;-89
2022/09/24 02:02:15;;;;;;;;;;;;;;;;;;5064794;27;19928;-89
2022/09/24 02:04:41;;;;;;;;;;;;;;;;;;5056360;27;19924;-90
2022/09/24 02:07:09;;;;;;;;;;;;;;;;;;5067698;27;20249;-89
2022/09/24 02:09:35;;;;;;;;;;;;;;;;;;5050429;28;19920;-89
2022/09/24 02:12:01;;;;;;;;;;;;;;;;;;5060512;27;20885;-89
2022/09/24 02:14:27;;;;;;;;;;;;;;;;;;5065679;27;20515;-89
2022/09/24 02:16:53;;;;;;;;;;;;;;;;;;5066444;28;19928;-89
2022/09/24 02:19:19;;;;;;;;;;;;;;;;;;5065483;27;20448;-89
2022/09/24 02:21:45;;;;;;;;;;;;;;;;;;5062348;28;19985;-89
2022/09/24 02:24:11;;;;;;;;;;;;;;;;;;5053796;27;20346;-89
2022/09/24 02:26:37;;;;;;;;;;;;;;;;;;5070427;28;20388;-89
2022/09/24 02:29:04;;;;;;;;;;;;;;;;;;5068673;27;19927;-89
2022/09/24 02:31:30;;;;;;;;;;;;;;;;;;5051294;27;19992;-89
2022/09/24 02:36:40;;;;;;;;;;;;;;;;;;5063583;27;19986;-89
2022/09/24 02:39:06;;;;;;;;;;;;;;;;;;5069366;27;20042;-89
2022/09/24 02:41:32;;;;;;;;;;;;;;;;;;5067617;28;19927;-89
2022/09/24 02:43:58;;;;;;;;;;;;;;;;;;5048272;28;19935;-89
2022/09/24 02:46:24;;;;;;;;;;;;;;;;;;5068705;27;19928;-89
2022/09/24 02:48:50;;;;;;;;;;;;;;;;;;5067262;28;20128;-89
2022/09/24 02:51:16;;;;;;;;;;;;;;;;;;5064090;27;19935;-89
2022/09/24 02:53:42;;;;;;;;;;;;;;;;;;5058711;28;19920;-89
2022/09/24 02:56:08;;;;;;;;;;;;;;;;;;5066656;27;19931;-89
2022/09/24 02:58:36;;;;;;;;;;;;;;;;;;5069008;27;20023;-88
2022/09/24 03:01:02;;;;;;;;;;;;;;;;;;5062147;27;19926;-88
2022/09/24 03:03:28;;;;;;;;;;;;;;;;;;5065379;27;19928;-89
2022/09/24 03:05:54;;;;;;;;;;;;;;;;;;5044883;28;20013;-88
2022/09/24 03:08:20;;;;;;;;;;;;;;;;;;5050934;27;19927;-88
2022/09/24 03:10:46;;;;;;;;;;;;;;;;;;5063371;27;19927;-89
2022/09/24 03:13:12;;;;;;;;;;;;;;;;;;5065903;27;19992;-89
2022/09/24 03:15:38;;;;;;;;;;;;;;;;;;5061542;28;20061;-88
2022/09/24 03:18:04;;;;;;;;;;;;;;;;;;5062621;27;19936;-88
2022/09/24 03:20:30;;;;;;;;;;;;;;;;;;5064546;28;19935;-89
2022/09/24 03:22:56;;;;;;;;;;;;;;;;;;5057474;27;19923;-89
2022/09/24 03:25:22;;;;;;;;;;;;;;;;;;5067229;28;19935;-88
2022/09/24 03:27:48;;;;;;;;;;;;;;;;;;5065175;28;19927;-89
2022/09/24 03:32:59;;;;;;;;;;;;;;;;;;5066384;27;19928;-89
2022/09/24 03:35:25;;;;;;;;;;;;;;;;;;5071304;28;19928;-89
2022/09/24 03:37:51;;;;;;;;;;;;;;;;;;5049921;28;19953;-89
2022/09/24 03:40:17;;;;;;;;;;;;;;;;;;5053107;27;19932;-89
2022/09/24 03:42:43;;;;;;;;;;;;;;;;;;5067228;27;19935;-89
2022/09/24 03:45:09;;;;;;;;;;;;;;;;;;5077194;28;19953;-90
2022/09/24 03:47:34;;;;;;;;;;;;;;;;;;5068744;28;19935;-89
2022/09/24 03:50:01;;;;;;;;;;;;;;;;;;5062429;28;20441;-89
2022/09/24 03:52:27;;;;;;;;;;;;;;;;;;5068888;28;20374;-89
2022/09/24 03:54:53;;;;;;;;;;;;;;;;;;5067652;27;19924;-89
2022/09/24 03:57:19;;;;;;;;;;;;;;;;;;5075150;28;20385;-88
2022/09/24 03:59:46;;;;;;;;;;;;;;;;;;5059648;28;19924;-89
2022/09/24 04:02:11;;;;;;;;;;;;;;;;;;5048863;27;20011;-89
2022/09/24 04:04:37;;;;;;;;;;;;;;;;;;5066346;27;19920;-89
2022/09/24 04:07:03;;;;;;;;;;;;;;;;;;5068456;28;20440;-89
2022/09/24 04:09:29;;;;;;;;;;;;;;;;;;5070962;27;19942;-89
2022/09/24 04:11:55;;;;;;;;;;;;;;;;;;5049079;28;20011;-89
2022/09/24 04:14:21;;;;;;;;;;;;;;;;;;5070420;27;19928;-90
2022/09/24 04:16:47;;;;;;;;;;;;;;;;;;5051965;28;19920;-89
2022/09/24 04:19:17;;;;;;;;;;;;;;;;;;5073962;27;19938;-89
2022/09/24 04:21:43;;;;;;;;;;;;;;;;;;5066035;28;20376;-88
2022/09/24 04:24:09;;;;;;;;;;;;;;;;;;5069581;27;19927;-90
2022/09/24 04:26:35;;;;;;;;;;;;;;;;;;5053540;28;19934;-89
2022/09/24 04:29:01;;;;;;;;;;;;;;;;;;5061355;28;20014;-89
2022/09/24 04:31:27;;;;;;;;;;;;;;;;;;5063643;28;19923;-89
2022/09/24 04:33:53;;;;;;;;;;;;;;;;;;5055880;28;20618;-89
2022/09/24 04:36:19;;;;;;;;;;;;;;;;;;5063557;28;20408;-89
2022/09/24 04:38:45;;;;;;;;;;;;;;;;;;5056848;28;19932;-89
2022/09/24 04:41:11;;;;;;;;;;;;;;;;;;5028714;28;19933;-89
2022/09/24 04:43:37;;;;;;;;;;;;;;;;;;5021347;28;19931;-89
2022/09/24 04:46:03;;;;;;;;;;;;;;;;;;5027566;28;19920;-89
2022/09/24 04:48:29;;;;;;;;;;;;;;;;;;5043816;28;20349;-88
2022/09/24 04:50:55;;;;;;;;;;;;;;;;;;5040628;28;19967;-88
2022/09/24 04:53:22;;;;;;;;;;;;;;;;;;5033683;28;19960;-89
2022/09/24 04:55:48;;;;;;;;;;;;;;;;;;5028363;28;19935;-88
2022/09/24 04:58:14;;;;;;;;;;;;;;;;;;5044777;28;20368;-88
2022/09/24 05:00:42;;;;;;;;;;;;;;;;;;5035462;28;20036;-88
2022/09/24 05:03:08;;;;;;;;;;;;;;;;;;5040164;28;19924;-88
2022/09/24 05:05:34;;;;;;;;;;;;;;;;;;5043820;28;19928;-89
2022/09/24 05:08:00;;;;;;;;;;;;;;;;;;5045324;28;19982;-88
2022/09/24 05:10:26;;;;;;;;;;;;;;;;;;5032747;28;19929;-89
2022/09/24 05:12:52;;;;;;;;;;;;;;;;;;5039476;28;20401;-88
2022/09/24 05:15:18;;;;;;;;;;;;;;;;;;5042875;28;20015;-88
2022/09/24 05:17:44;;;;;;;;;;;;;;;;;;5035873;28;21488;-89
2022/09/24 05:20:10;;;;;;;;;;;;;;;;;;5028196;28;19932;-89
2022/09/24 05:22:39;;;;;;;;;;;;;;;;;;5052489;28;20406;-89
2022/09/24 05:25:05;;;;;;;;;;;;;;;;;;5034227;28;20354;-89
2022/09/24 05:27:31;;;;;;;;;;;;;;;;;;5046019;28;19931;-89
2022/09/24 05:29:58;;;;;;;;;;;;;;;;;;5024330;28;20970;-89
2022/09/24 05:32:24;;;;;;;;;;;;;;;;;;5036466;28;19924;-89
2022/09/24 05:34:51;;;;;;;;;;;;;;;;;;5027529;28;19924;-89
2022/09/24 05:37:17;;;;;;;;;;;;;;;;;;5028928;28;20240;-90
2022/09/24 05:39:43;;;;;;;;;;;;;;;;;;5039912;28;19925;-89
2022/09/24 05:42:09;;;;;;;;;;;;;;;;;;5029542;28;20001;-89
2022/09/24 05:44:36;;;;;;;;;;;;;;;;;;5047800;28;19929;-89
2022/09/24 05:47:02;;;;;;;;;;;;;;;;;;5041495;28;19925;-89
2022/09/24 05:49:28;;;;;;;;;;;;;;;;;;5049903;28;19920;-89
2022/09/24 05:51:54;;;;;;;;;;;;;;;;;;5048123;28;20396;-89
2022/09/24 05:54:20;;;;;;;;;;;;;;;;;;5050048;28;21409;-88
2022/09/24 05:56:46;;;;;;;;;;;;;;;;;;5041118;28;19928;-89
2022/09/24 05:59:12;;;;;;;;;;;;;;;;;;5044604;28;19940;-89
2022/09/24 06:01:38;;;;;;;;;;;;;;;;;;5026462;28;20429;-89
2022/09/24 06:04:04;;;;;;;;;;;;;;;;;;5041902;28;19924;-89
2022/09/24 06:06:29;;;;;;;;;;;;;;;;;;5053805;28;19928;-89
2022/09/24 06:08:56;;;;;;;;;;;;;;;;;;5030024;28;19976;-90
2022/09/24 06:11:21;;;;;;;;;;;;;;;;;;5035744;28;19971;-90
2022/09/24 06:13:47;;;;;;;;;;;;;;;;;;5049349;28;20390;-89
2022/09/24 06:16:13;;;;;;;;;;;;;;;;;;5052740;28;19943;-89
2022/09/24 06:18:39;;;;;;;;;;;;;;;;;;5045447;28;19932;-90
2022/09/24 06:21:06;;;;;;;;;;;;;;;;;;5029417;28;19925;-90
2022/09/24 06:23:32;;;;;;;;;;;;;;;;;;5033253;28;19928;-90
2022/09/24 06:25:58;;;;;;;;;;;;;;;;;;5043135;28;19967;-90
2022/09/24 06:28:24;;;;;;;;;;;;;;;;;;5031171;28;20479;-90
2022/09/24 06:30:50;;;;;;;;;;;;;;;;;;5029994;28;19937;-90
2022/09/24 06:33:16;;;;;;;;;;;;;;;;;;5035764;28;19943;-90
2022/09/24 06:35:42;;;;;;;;;;;;;;;;;;5031169;28;19928;-91
2022/09/24 06:38:08;;;;;;;;;;;;;;;;;;5036799;28;19940;-91
2022/09/24 06:40:34;;;;;;;;;;;;;;;;;;5037835;28;19939;-89
2022/09/24 06:43:00;;;;;;;;;;;;;;;;;;5052846;28;19924;-91
2022/09/24 06:45:27;;;;;;;;;;;;;;;;;;5057664;28;19929;-90
2022/09/24 06:47:52;;;;;;;;;;;;;;;;;;5045220;28;20131;-88
2022/09/24 06:50:18;;;;;;;;;;;;;;;;;;5031595;28;20434;-89
2022/09/24 06:52:44;;;;;;;;;;;;;;;;;;5031620;28;19935;-89
2022/09/24 06:55:10;;;;;;;;;;;;;;;;;;5035578;28;20698;-89
2022/09/24 06:57:39;;;;;;;;;;;;;;;;;;5042032;28;19979;-89
2022/09/24 07:00:05;;;;;;;;;;;;;;;;;;5038571;28;20311;-89
2022/09/24 07:02:31;;;;;;;;;;;;;;;;;;5056806;28;19924;-89
2022/09/24 07:04:57;;;;;;;;;;;;;;;;;;5039638;28;22099;-89
2022/09/24 07:07:31;;;;;;;;;;;;;;;;;;5050309;28;20365;-90
2022/09/24 07:09:57;;;;;;;;;;;;;;;;;;5054580;28;21193;-89
2022/09/24 07:12:23;;;;;;;;;;;;;;;;;;5063053;28;19928;-90
2022/09/24 07:14:49;;;;;;;;;;;;;;;;;;5048983;28;20367;-89
2022/09/24 07:17:15;;;;;;;;;;;;;;;;;;5057318;28;19920;-89
2022/09/24 07:19:41;;;;;;;;;;;;;;;;;;5054731;28;20389;-90
2022/09/24 07:22:07;;;;;;;;;;;;;;;;;;5041170;28;20324;-89
2022/09/24 07:24:33;;;;;;;;;;;;;;;;;;5044909;28;19935;-90
2022/09/24 07:26:59;;;;;;;;;;;;;;;;;;5036642;28;19925;-90
2022/09/24 07:29:25;;;;;;;;;;;;;;;;;;5044058;28;20011;-90
2022/09/24 07:31:51;;;;;;;;;;;;;;;;;;5026152;28;19928;-90
2022/09/24 07:34:17;;;;;;;;;;;;;;;;;;5052284;28;19924;-89
2022/09/24 07:36:43;;;;;;;;;;;;;;;;;;5047266;28;19927;-90
2022/09/24 07:39:09;;;;;;;;;;;;;;;;;;5030641;28;19928;-89
2022/09/24 07:41:35;;;;;;;;;;;;;;;;;;5036988;28;19977;-90
2022/09/24 07:44:01;;;;;;;;;;;;;;;;;;5030882;28;19924;-89
2022/09/24 07:46:27;;;;;;;;;;;;;;;;;;5046933;28;20344;-89
2022/09/24 07:48:55;;;;;;;;;;;;;;;;;;5049539;28;19966;-90
2022/09/24 07:51:21;;;;;;;;;;;;;;;;;;5033868;28;20385;-90
2022/09/24 07:53:47;;;;;;;;;;;;;;;;;;5034024;28;19928;-89
2022/09/24 07:56:13;;;;;;;;;;;;;;;;;;5026527;28;20224;-90
2022/09/24 07:58:39;;;;;;;;;;;;;;;;;;5036051;28;19932;-90
2022/09/24 08:01:05;;;;;;;;;;;;;;;;;;5041019;28;19920;-91
2022/09/24 08:03:31;;;;;;;;;;;;;;;;;;5023684;28;19921;-89
2022/09/24 08:05:58;;;;;;;;;;;;;;;;;;5038974;28;20824;-89
2022/09/24 08:08:24;;;;;;;;;;;;;;;;;;5042259;28;19928;-90
2022/09/24 08:10:50;;;;;;;;;;;;;;;;;;5042379;28;19949;-90
2022/09/24 08:13:16;;;;;;;;;;;;;;;;;;5034973;28;20018;-89
2022/09/24 08:15:45;;;;;;;;;;;;;;;;;;5026076;28;19996;-88
2022/09/24 08:18:15;;;;;;;;;;;;;;;;;;5050552;28;19924;-92
2022/09/24 08:20:53;;;;;;;;;;;;;;;;;;5033818;28;19932;-94
2022/09/24 08:23:31;;;;;;;;;;;;;;;;;;5245427;22;19963;-92
2022/09/24 08:25:57;;;;;;;;;;;;;;;;;;5008560;28;21191;-89
2022/09/24 08:28:23;;;;;;;;;;;;;;;;;;5029820;28;19935;-92
2022/09/24 08:30:49;;;;;;;;;;;;;;;;;;5013169;28;20272;-92
2022/09/24 08:33:15;;;;;;;;;;;;;;;;;;5018554;28;19925;-92
2022/09/24 08:35:41;;;;;;;;;;;;;;;;;;5002947;28;20969;-91
2022/09/24 08:38:10;;;;;;;;;;;;;;;;;;5005453;28;24041;-90
2022/09/24 08:40:40;;;;;;;;;;;;;;;;;;5002032;28;19955;-91
2022/09/24 08:43:06;;;;;;;;;;;;;;;;;;5007725;28;20298;-90
2022/09/24 08:48:19;;;;;;;;;;;;;;;;;;5021789;28;20051;-91
2022/09/24 08:50:45;;;;;;;;;;;;;;;;;;5022946;28;19927;-91
2022/09/24 08:53:10;;;;;;;;;;;;;;;;;;5010482;28;19920;-90
2022/09/24 08:55:37;;;;;;;;;;;;;;;;;;5024889;28;21094;-92
2022/09/24 08:58:03;;;;;;;;;;;;;;;;;;5009220;28;19936;-91
2022/09/24 09:00:29;;;;;;;;;;;;;;;;;;5018217;28;19967;-91
2022/09/24 09:02:55;;;;;;;;;;;;;;;;;;5019241;28;19959;-91
2022/09/24 09:05:26;;;;;;;;;;;;;;;;;;5027936;28;19929;-91
2022/09/24 09:07:52;;;;;;;;;;;;;;;;;;5005720;28;19929;-91
2022/09/24 09:10:25;;;;;;;;;;;;;;;;;;5007417;28;20256;-90
2022/09/24 09:12:51;;;;;;;;;;;;;;;;;;5017473;28;19967;-91
2022/09/24 09:15:17;;;;;;;;;;;;;;;;;;5014790;28;19921;-91
2022/09/24 09:17:44;;;;;;;;;;;;;;;;;;5009962;28;20388;-91
2022/09/24 09:20:10;;;;;;;;;;;;;;;;;;5027024;28;20053;-90
2022/09/24 09:22:36;;;;;;;;;;;;;;;;;;5031009;28;20011;-91
2022/09/24 09:25:05;;;;;;;;;;;;;;;;;;5030006;28;19969;-91
2022/09/24 09:27:31;;;;;;;;;;;;;;;;;;5010624;28;20005;-91
2022/09/24 09:29:58;;;;;;;;;;;;;;;;;;5026076;28;21421;-90
2022/09/24 09:32:24;;;;;;;;;;;;;;;;;;5008768;28;20370;-90
2022/09/24 09:34:50;;;;;;;;;;;;;;;;;;5005883;28;19925;-91
2022/09/24 09:37:16;;;;;;;;;;;;;;;;;;5014238;28;20444;-90
2022/09/24 09:39:42;;;;;;;;;;;;;;;;;;5009636;28;20429;-91
2022/09/24 09:42:08;;;;;;;;;;;;;;;;;;5012029;28;19924;-90
2022/09/24 09:44:34;;;;;;;;;;;;;;;;;;5031497;28;20311;-90
2022/09/24 09:47:00;;;;;;;;;;;;;;;;;;5026831;28;20370;-91
2022/09/24 09:49:28;;;;;;;;;;;;;;;;;;5022406;28;19931;-91
2022/09/24 09:51:54;;;;;;;;;;;;;;;;;;5008971;28;19928;-91
2022/09/24 09:54:20;;;;;;;;;;;;;;;;;;5024841;28;20333;-91
2022/09/24 09:56:46;;;;;;;;;;;;;;;;;;5009451;28;19920;-90
2022/09/24 09:59:12;;;;;;;;;;;;;;;;;;5007310;28;20005;-91
2022/09/24 10:01:39;;;;;;;;;;;;;;;;;;5021142;28;20044;-91
2022/09/24 10:04:05;;;;;;;;;;;;;;;;;;5021711;28;19924;-91
2022/09/24 10:06:31;;;;;;;;;;;;;;;;;;5027513;28;20476;-91
2022/09/24 10:08:57;;;;;;;;;;;;;;;;;;5029115;28;21177;-90
2022/09/24 10:11:23;;;;;;;;;;;;;;;;;;5019319;28;20662;-91
2022/09/24 10:13:49;;;;;;;;;;;;;;;;;;5001956;28;19951;-91
2022/09/24 10:16:18;;;;;;;;;;;;;;;;;;5010491;28;19992;-91
2022/09/24 10:18:44;;;;;;;;;;;;;;;;;;5024488;28;19928;-92
2022/09/24 10:21:10;;;;;;;;;;;;;;;;;;5026949;28;19968;-91
2022/09/24 10:23:40;;;;;;;;;;;;;;;;;;5023829;28;19925;-92
2022/09/24 10:26:05;;;;;;;;;;;;;;;;;;5028148;28;19921;-91
2022/09/24 10:31:16;;;;;;;;;;;;;;;;;;5034746;28;19920;-91
2022/09/24 10:33:43;;;;;;;;;;;;;;;;;;5025844;28;19947;-91
2022/09/24 10:36:09;;;;;;;;;;;;;;;;;;5010539;28;19924;-90
2022/09/24 10:38:35;;;;;;;;;;;;;;;;;;5025430;28;19939;-89
2022/09/24 10:41:00;;;;;;;;;;;;;;;;;;5024395;28;19924;-91
2022/09/24 10:43:26;;;;;;;;;;;;;;;;;;5013361;28;21170;-91
2022/09/24 10:45:52;;;;;;;;;;;;;;;;;;5007767;28;19924;-91
2022/09/24 10:48:18;;;;;;;;;;;;;;;;;;5030920;28;19932;-91
2022/09/24 10:50:44;;;;;;;;;;;;;;;;;;5022615;28;20498;-91
2022/09/24 10:53:11;;;;;;;;;;;;;;;;;;5014469;28;19935;-90
2022/09/24 10:55:40;;;;;;;;;;;;;;;;;;5028918;28;19935;-91
2022/09/24 10:58:06;;;;;;;;;;;;;;;;;;5011726;28;19956;-91
2022/09/24 11:00:32;;;;;;;;;;;;;;;;;;5029177;28;20019;-91
2022/09/24 11:02:58;;;;;;;;;;;;;;;;;;5027031;28;21449;-90
2022/09/24 11:05:24;;;;;;;;;;;;;;;;;;5020184;28;20626;-90
2022/09/24 11:07:53;;;;;;;;;;;;;;;;;;5006632;28;19924;-91
2022/09/24 11:10:19;;;;;;;;;;;;;;;;;;5027420;28;19927;-91
2022/09/24 11:12:45;;;;;;;;;;;;;;;;;;5025788;28;20350;-91
2022/09/24 11:15:13;;;;;;;;;;;;;;;;;;5015273;28;20007;-91
2022/09/24 11:17:39;;;;;;;;;;;;;;;;;;5025316;28;19920;-91
2022/09/24 11:20:05;;;;;;;;;;;;;;;;;;5035580;28;19986;-91
2022/09/24 11:22:31;;;;;;;;;;;;;;;;;;5030146;28;19948;-90
2022/09/24 11:24:57;;;;;;;;;;;;;;;;;;5026169;28;20739;-91
2022/09/24 11:27:23;;;;;;;;;;;;;;;;;;5016450;28;19929;-91
2022/09/24 11:29:49;;;;;;;;;;;;;;;;;;5023686;28;19928;-91
2022/09/24 11:32:15;;;;;;;;;;;;;;;;;;5029230;28;20023;-90
2022/09/24 11:34:41;;;;;;;;;;;;;;;;;;5005640;28;21743;-90
2022/09/24 11:37:07;;;;;;;;;;;;;;;;;;5023811;28;19931;-91
2022/09/24 11:39:33;;;;;;;;;;;;;;;;;;5028957;28;21259;-90
2022/09/24 11:41:59;;;;;;;;;;;;;;;;;;5010016;28;19954;-89
2022/09/24 11:44:25;;;;;;;;;;;;;;;;;;5030872;28;19936;-90
2022/09/24 11:46:51;;;;;;;;;;;;;;;;;;5030842;28;19924;-90
2022/09/24 11:49:17;;;;;;;;;;;;;;;;;;5022871;28;19928;-90
2022/09/24 11:51:43;;;;;;;;;;;;;;;;;;5027293;28;19924;-91
2022/09/24 11:54:09;;;;;;;;;;;;;;;;;;5027098;28;19982;-92
2022/09/24 11:56:35;;;;;;;;;;;;;;;;;;5015227;28;20310;-91
2022/09/24 11:59:01;;;;;;;;;;;;;;;;;;5008392;28;19931;-90
2022/09/24 12:01:27;;;;;;;;;;;;;;;;;;5015362;28;19924;-91
2022/09/24 12:03:53;;;;;;;;;;;;;;;;;;5026818;28;19925;-91
2022/09/24 12:06:19;;;;;;;;;;;;;;;;;;5033960;28;20008;-91
2022/09/24 12:08:45;;;;;;;;;;;;;;;;;;5012335;28;19929;-91
2022/09/24 12:11:14;;;;;;;;;;;;;;;;;;5014549;28;19926;-93
2022/09/24 12:13:40;;;;;;;;;;;;;;;;;;5006862;28;19920;-92
2022/09/24 12:16:06;;;;;;;;;;;;;;;;;;5008682;28;19931;-91
2022/09/24 12:18:32;;;;;;;;;;;;;;;;;;5051809;28;19929;-91
2022/09/24 12:21:00;;;;;;;;;;;;;;;;;;5031707;28;19935;-91
2022/09/24 12:23:26;;;;;;;;;;;;;;;;;;5035167;28;19921;-92
2022/09/24 12:25:53;;;;;;;;;;;;;;;;;;5008885;28;19931;-91
2022/09/24 12:33:48;;;;;;;;;;;;;;;;;;5026667;28;19977;-91
2022/09/24 12:36:14;;;;;;;;;;;;;;;;;;5028205;28;19920;-91
2022/09/24 12:38:41;;;;;;;;;;;;;;;;;;5005659;28;19940;-91
2022/09/24 12:41:07;;;;;;;;;;;;;;;;;;5009692;28;19928;-91
2022/09/24 12:43:33;;;;;;;;;;;;;;;;;;5022936;28;19936;-92
2022/09/24 12:45:59;;;;;;;;;;;;;;;;;;5006292;28;20422;-92
2022/09/24 12:48:25;;;;;;;;;;;;;;;;;;5008438;28;19928;-92
2022/09/24 12:50:51;;;;;;;;;;;;;;;;;;4997891;28;21036;-91
2022/09/24 12:53:21;;;;;;;;;;;;;;;;;;5007910;28;20685;-92
2022/09/24 12:55:47;;;;;;;;;;;;;;;;;;5008526;28;20009;-92
2022/09/24 12:58:13;;;;;;;;;;;;;;;;;;5007767;28;19963;-92
2022/09/24 13:00:40;;;;;;;;;;;;;;;;;;5003076;28;19932;-93
2022/09/24 13:03:06;;;;;;;;;;;;;;;;;;5031910;28;19931;-91
2022/09/24 13:05:32;;;;;;;;;;;;;;;;;;5020221;28;19924;-92
2022/09/24 13:07:58;;;;;;;;;;;;;;;;;;5014857;28;20845;-91
2022/09/24 13:10:24;;;;;;;;;;;;;;;;;;5029489;28;19929;-92
2022/09/24 13:12:50;;;;;;;;;;;;;;;;;;5008460;28;19971;-92
2022/09/24 13:15:16;;;;;;;;;;;;;;;;;;5008899;28;19916;-91
2022/09/24 13:17:43;;;;;;;;;;;;;;;;;;5007260;28;20031;-92
2022/09/24 13:20:09;;;;;;;;;;;;;;;;;;5002057;28;19968;-92
2022/09/24 13:22:35;;;;;;;;;;;;;;;;;;5006395;28;20363;-91
2022/09/24 13:25:01;;;;;;;;;;;;;;;;;;5004323;28;20259;-92
2022/09/24 13:27:27;;;;;;;;;;;;;;;;;;5007195;28;19924;-92
2022/09/24 13:30:03;;;;;;;;;;;;;;;;;;5022377;28;19931;-92
2022/09/24 13:32:31;;;;;;;;;;;;;;;;;;5011854;28;19971;-92
2022/09/24 13:35:01;;;;;;;;;;;;;;;;;;5011959;28;20015;-92
2022/09/24 13:37:29;;;;;;;;;;;;;;;;;;5033351;28;20363;-93
2022/09/24 13:39:56;;;;;;;;;;;;;;;;;;5010790;28;19915;-93
2022/09/24 13:42:22;;;;;;;;;;;;;;;;;;5020941;28;19954;-91
2022/09/24 13:44:57;;;;;;;;;;;;;;;;;;5015280;28;19929;-92
2022/09/24 13:47:23;;;;;;;;;;;;;;;;;;5033673;28;19935;-92
2022/09/24 13:49:49;;;;;;;;;;;;;;;;;;5031444;28;19921;-93
2022/09/24 13:52:15;;;;;;;;;;;;;;;;;;5023533;28;20402;-91
2022/09/24 13:54:41;;;;;;;;;;;;;;;;;;5009658;28;19932;-91
2022/09/24 13:57:07;;;;;;;;;;;;;;;;;;5032114;28;19935;-92
2022/09/24 13:59:33;;;;;;;;;;;;;;;;;;5019913;28;19929;-92
2022/09/24 14:01:59;;;;;;;;;;;;;;;;;;5029117;28;19928;-92
2022/09/24 14:04:25;;;;;;;;;;;;;;;;;;5008268;28;19961;-92
2022/09/24 14:06:51;;;;;;;;;;;;;;;;;;5019131;28;20006;-93
2022/09/24 14:09:17;;;;;;;;;;;;;;;;;;5026399;28;20401;-93
2022/09/24 14:11:43;;;;;;;;;;;;;;;;;;5020407;28;19920;-93
2022/09/24 14:14:09;;;;;;;;;;;;;;;;;;5019297;28;20015;-91
2022/09/24 14:16:43;;;;;;;;;;;;;;;;;;5019340;28;19961;-92
2022/09/24 14:19:09;;;;;;;;;;;;;;;;;;5037050;28;19936;-92
2022/09/24 14:21:41;;;;;;;;;;;;;;;;;;5015825;28;19972;-92
2022/09/24 14:24:07;;;;;;;;;;;;;;;;;;5021165;28;19932;-92
2022/09/24 14:26:36;;;;;;;;;;;;;;;;;;5023283;28;20379;-92
2022/09/24 14:29:05;;;;;;;;;;;;;;;;;;5014278;28;20383;-93
2022/09/24 14:31:31;;;;;;;;;;;;;;;;;;5025691;28;19987;-92
2022/09/24 14:33:57;;;;;;;;;;;;;;;;;;5014048;28;21439;-93
2022/09/24 14:36:29;;;;;;;;;;;;;;;;;;5019257;28;19959;-93
2022/09/24 14:38:58;;;;;;;;;;;;;;;;;;5012588;28;20313;-92
2022/09/24 14:41:24;;;;;;;;;;;;;;;;;;5018374;28;19927;-93
2022/09/24 14:43:50;;;;;;;;;;;;;;;;;;5013160;28;19943;-92
2022/09/24 14:46:21;;;;;;;;;;;;;;;;;;5018207;28;19929;-93
2022/09/24 14:48:48;;;;;;;;;;;;;;;;;;5024951;28;19970;-92
2022/09/24 14:51:14;;;;;;;;;;;;;;;;;;5014382;28;19924;-91
2022/09/24 14:53:40;;;;;;;;;;;;;;;;;;5018793;28;20321;-92
2022/09/24 14:56:09;;;;;;;;;;;;;;;;;;5017802;28;19928;-92
2022/09/24 14:58:41;;;;;;;;;;;;;;;;;;5013890;28;20349;-92
2022/09/24 15:01:12;;;;;;;;;;;;;;;;;;5009918;28;19933;-91
2022/09/24 15:03:38;;;;;;;;;;;;;;;;;;5027680;28;19929;-92
2022/09/24 15:06:04;;;;;;;;;;;;;;;;;;5027127;28;19924;-91
2022/09/24 15:08:33;;;;;;;;;;;;;;;;;;5009166;28;20371;-93
2022/09/24 15:10:59;;;;;;;;;;;;;;;;;;5021798;28;20007;-92
2022/09/24 15:13:25;;;;;;;;;;;;;;;;;;5017868;28;19933;-91
2022/09/24 15:15:54;;;;;;;;;;;;;;;;;;4999904;28;21215;-91
2022/09/24 15:18:23;;;;;;;;;;;;;;;;;;5001010;28;19991;-92
2022/09/24 15:20:49;;;;;;;;;;;;;;;;;;4999159;28;19992;-92
2022/09/24 15:23:19;;;;;;;;;;;;;;;;;;5006412;28;19920;-92
2022/09/24 15:25:53;;;;;;;;;;;;;;;;;;5009847;28;20012;-92
2022/09/24 15:28:21;;;;;;;;;;;;;;;;;;5006981;28;23171;-92
2022/09/24 15:30:47;;;;;;;;;;;;;;;;;;5018216;28;19928;-92
2022/09/24 15:33:17;;;;;;;;;;;;;;;;;;5006588;28;20291;-92
2022/09/24 15:35:43;;;;;;;;;;;;;;;;;;5021308;28;19925;-92
2022/09/24 15:38:10;;;;;;;;;;;;;;;;;;5033556;28;20030;-91
2022/09/24 15:40:36;;;;;;;;;;;;;;;;;;5029963;28;19928;-92
2022/09/24 15:43:02;;;;;;;;;;;;;;;;;;5022722;28;19984;-92
2022/09/24 15:45:28;;;;;;;;;;;;;;;;;;5015646;28;19963;-93
2022/09/24 15:47:54;;;;;;;;;;;;;;;;;;5015460;28;19972;-94
2022/09/24 15:50:20;;;;;;;;;;;;;;;;;;5012731;28;19924;-93
2022/09/24 15:52:46;;;;;;;;;;;;;;;;;;4998811;28;19924;-91
2022/09/24 15:55:12;;;;;;;;;;;;;;;;;;5001710;28;20283;-92
2022/09/24 15:57:41;;;;;;;;;;;;;;;;;;5017399;28;19929;-94
2022/09/24 16:00:07;;;;;;;;;;;;;;;;;;5004160;28;20516;-92
2022/09/24 16:02:33;;;;;;;;;;;;;;;;;;4999261;28;19928;-93
2022/09/24 16:04:59;;;;;;;;;;;;;;;;;;5000185;28;21198;-92
2022/09/24 16:07:25;;;;;;;;;;;;;;;;;;5017034;28;19929;-92
2022/09/24 16:09:51;;;;;;;;;;;;;;;;;;5002157;28;21232;-92
2022/09/24 16:12:17;;;;;;;;;;;;;;;;;;5022727;28;21078;-92
2022/09/24 16:14:43;;;;;;;;;;;;;;;;;;4997638;28;19924;-92
2022/09/24 16:17:10;;;;;;;;;;;;;;;;;;5005699;28;19951;-92
2022/09/24 16:19:36;;;;;;;;;;;;;;;;;;5005872;28;19929;-93
2022/09/24 16:22:01;;;;;;;;;;;;;;;;;;5004662;28;19974;-92
2022/09/24 16:24:27;;;;;;;;;;;;;;;;;;5021693;28;19968;-92
2022/09/24 16:26:54;;;;;;;;;;;;;;;;;;5026554;28;21139;-93
2022/09/24 16:29:20;;;;;;;;;;;;;;;;;;5004662;28;19932;-92
2022/09/24 16:31:48;;;;;;;;;;;;;;;;;;5003449;28;19928;-92
2022/09/24 16:34:14;;;;;;;;;;;;;;;;;;5014953;28;25771;-91
2022/09/24 16:36:40;;;;;;;;;;;;;;;;;;5002348;28;19935;-92
2022/09/24 16:39:06;;;;;;;;;;;;;;;;;;4998062;28;19937;-94
2022/09/24 16:41:35;;;;;;;;;;;;;;;;;;5006052;28;21716;-92
2022/09/24 16:44:01;;;;;;;;;;;;;;;;;;5001268;28;19928;-92
2022/09/24 16:46:27;;;;;;;;;;;;;;;;;;5025763;28;19924;-92
2022/09/24 16:48:53;;;;;;;;;;;;;;;;;;5003740;28;20279;-93
2022/09/24 16:51:19;;;;;;;;;;;;;;;;;;5011388;28;20816;-92
2022/09/24 16:54:07;;;;;;;;;;;;;;;;;;5005159;28;19947;-91
2022/09/24 16:56:32;;;;;;;;;;;;;;;;;;5020846;28;19928;-92
2022/09/24 16:58:58;;;;;;;;;;;;;;;;;;5000377;28;22440;-91